sensor_id;sensor_type;location;lat;lon;timestamp;P1;durP1;ratioP1;P2;durP2;ratioP2
69719;SDS011;56988;56.122;13.798;2023-01-29T00:00:02;30.20;;;4.47;;
69719;SDS011;56988;56.122;13.798;2023-01-29T00:01:09;27.17;;;3.42;;
69719;SDS011;56988;56.122;13.798;2023-01-29T00:02:09;30.70;;;4.55;;
69719;SDS011;56988;56.122;13.798;2023-01-29T00:03:09;30.17;;;4.70;;
69719;SDS011;56988;56.122;13.798;2023-01-29T00:04:09;30.88;;;5.00;;
69719;SDS011;56988;56.122;13.798;2023-01-29T00:05:10;25.92;;;4.57;;
69719;SDS011;56988;56.122;13.798;2023-01-29T00:06:10;28.38;;;4.28;;
69719;SDS011;56988;56.122;13.798;2023-01-29T00:07:11;36.13;;;3.83;;
69719;SDS011;56988;56.122;13.798;2023-01-29T00:08:12;28.55;;;5.00;;
69719;SDS011;56988;56.122;13.798;2023-01-29T00:09:12;33.50;;;4.65;;
69719;SDS011;56988;56.122;13.798;2023-01-29T00:10:13;27.77;;;4.00;;
69719;SDS011;56988;56.122;13.798;2023-01-29T00:11:13;25.42;;;4.32;;
69719;SDS011;56988;56.122;13.798;2023-01-29T00:12:14;31.42;;;4.38;;
69719;SDS011;56988;56.122;13.798;2023-01-29T00:13:15;31.47;;;4.40;;
69719;SDS011;56988;56.122;13.798;2023-01-29T00:14:15;30.45;;;4.97;;
69719;SDS011;56988;56.122;13.798;2023-01-29T00:15:15;31.50;;;4.22;;
69719;SDS011;56988;56.122;13.798;2023-01-29T00:16:16;34.40;;;4.40;;
69719;SDS011;56988;56.122;13.798;2023-01-29T00:17:16;34.05;;;4.22;;
69719;SDS011;56988;56.122;13.798;2023-01-29T00:18:17;22.90;;;3.83;;
69719;SDS011;56988;56.122;13.798;2023-01-29T00:19:17;33.47;;;4.07;;
69719;SDS011;56988;56.122;13.798;2023-01-29T00:20:18;30.88;;;4.40;;
69719;SDS011;56988;56.122;13.798;2023-01-29T00:21:19;37.60;;;4.18;;
69719;SDS011;56988;56.122;13.798;2023-01-29T00:22:21;21.33;;;4.30;;
69719;SDS011;56988;56.122;13.798;2023-01-29T00:23:21;30.97;;;4.83;;
69719;SDS011;56988;56.122;13.798;2023-01-29T00:24:22;38.58;;;4.40;;
69719;SDS011;56988;56.122;13.798;2023-01-29T00:25:22;28.85;;;4.70;;
69719;SDS011;56988;56.122;13.798;2023-01-29T00:26:22;28.65;;;3.75;;
69719;SDS011;56988;56.122;13.798;2023-01-29T00:27:22;33.90;;;5.45;;
69719;SDS011;56988;56.122;13.798;2023-01-29T00:28:23;35.70;;;4.93;;
69719;SDS011;56988;56.122;13.798;2023-01-29T00:29:23;33.58;;;4.40;;
69719;SDS011;56988;56.122;13.798;2023-01-29T00:30:23;28.02;;;4.45;;
69719;SDS011;56988;56.122;13.798;2023-01-29T00:31:24;28.33;;;5.35;;
69719;SDS011;56988;56.122;13.798;2023-01-29T00:32:24;32.53;;;5.78;;
69719;SDS011;56988;56.122;13.798;2023-01-29T00:33:25;31.43;;;4.30;;
69719;SDS011;56988;56.122;13.798;2023-01-29T00:34:25;27.37;;;4.47;;
69719;SDS011;56988;56.122;13.798;2023-01-29T00:35:25;30.27;;;5.07;;
69719;SDS011;56988;56.122;13.798;2023-01-29T00:36:26;38.33;;;5.00;;
69719;SDS011;56988;56.122;13.798;2023-01-29T00:37:26;22.27;;;4.45;;
69719;SDS011;56988;56.122;13.798;2023-01-29T00:38:26;31.52;;;4.90;;
69719;SDS011;56988;56.122;13.798;2023-01-29T00:39:27;31.58;;;5.15;;
69719;SDS011;56988;56.122;13.798;2023-01-29T00:40:38;25.70;;;4.45;;
69719;SDS011;56988;56.122;13.798;2023-01-29T00:41:57;30.02;;;4.25;;
69719;SDS011;56988;56.122;13.798;2023-01-29T00:43:15;32.85;;;4.70;;
69719;SDS011;56988;56.122;13.798;2023-01-29T00:44:34;35.35;;;4.63;;
69719;SDS011;56988;56.122;13.798;2023-01-29T00:45:53;38.40;;;5.15;;
69719;SDS011;56988;56.122;13.798;2023-01-29T00:46:53;28.07;;;5.43;;
69719;SDS011;56988;56.122;13.798;2023-01-29T00:47:54;28.92;;;5.13;;
69719;SDS011;56988;56.122;13.798;2023-01-29T00:48:54;29.33;;;6.05;;
69719;SDS011;56988;56.122;13.798;2023-01-29T00:49:54;30.90;;;5.03;;
69719;SDS011;56988;56.122;13.798;2023-01-29T00:50:55;36.42;;;5.32;;
69719;SDS011;56988;56.122;13.798;2023-01-29T00:51:55;31.70;;;5.57;;
69719;SDS011;56988;56.122;13.798;2023-01-29T00:53:14;27.40;;;5.20;;
69719;SDS011;56988;56.122;13.798;2023-01-29T00:54:14;42.47;;;5.13;;
69719;SDS011;56988;56.122;13.798;2023-01-29T00:55:14;34.40;;;5.63;;
69719;SDS011;56988;56.122;13.798;2023-01-29T00:56:15;38.97;;;6.00;;
69719;SDS011;56988;56.122;13.798;2023-01-29T00:57:15;29.90;;;4.75;;
69719;SDS011;56988;56.122;13.798;2023-01-29T00:58:15;35.72;;;5.47;;
69719;SDS011;56988;56.122;13.798;2023-01-29T00:59:21;20.50;;;4.78;;
69719;SDS011;56988;56.122;13.798;2023-01-29T01:00:21;35.22;;;5.75;;
69719;SDS011;56988;56.122;13.798;2023-01-29T01:01:23;31.55;;;4.43;;
69719;SDS011;56988;56.122;13.798;2023-01-29T01:02:42;28.10;;;5.32;;
69719;SDS011;56988;56.122;13.798;2023-01-29T01:04:01;34.60;;;5.65;;
69719;SDS011;56988;56.122;13.798;2023-01-29T01:05:02;34.00;;;5.00;;
69719;SDS011;56988;56.122;13.798;2023-01-29T01:06:05;30.77;;;5.18;;
69719;SDS011;56988;56.122;13.798;2023-01-29T01:07:05;29.73;;;4.88;;
69719;SDS011;56988;56.122;13.798;2023-01-29T01:08:06;33.38;;;5.00;;
69719;SDS011;56988;56.122;13.798;2023-01-29T01:09:26;23.30;;;4.68;;
69719;SDS011;56988;56.122;13.798;2023-01-29T01:10:45;23.15;;;4.78;;
69719;SDS011;56988;56.122;13.798;2023-01-29T01:11:45;38.10;;;4.77;;
69719;SDS011;56988;56.122;13.798;2023-01-29T01:12:46;29.58;;;5.22;;
69719;SDS011;56988;56.122;13.798;2023-01-29T01:13:46;28.45;;;5.07;;
69719;SDS011;56988;56.122;13.798;2023-01-29T01:14:47;36.63;;;5.07;;
69719;SDS011;56988;56.122;13.798;2023-01-29T01:15:47;36.90;;;5.43;;
69719;SDS011;56988;56.122;13.798;2023-01-29T01:16:48;32.83;;;5.75;;
69719;SDS011;56988;56.122;13.798;2023-01-29T01:17:51;31.92;;;4.93;;
69719;SDS011;56988;56.122;13.798;2023-01-29T01:18:51;37.15;;;4.80;;
69719;SDS011;56988;56.122;13.798;2023-01-29T01:19:51;31.33;;;4.75;;
69719;SDS011;56988;56.122;13.798;2023-01-29T01:20:55;29.52;;;5.22;;
69719;SDS011;56988;56.122;13.798;2023-01-29T01:21:57;30.13;;;4.32;;
69719;SDS011;56988;56.122;13.798;2023-01-29T01:22:58;33.10;;;6.27;;
69719;SDS011;56988;56.122;13.798;2023-01-29T01:23:58;39.72;;;5.30;;
69719;SDS011;56988;56.122;13.798;2023-01-29T01:24:58;32.60;;;5.47;;
69719;SDS011;56988;56.122;13.798;2023-01-29T01:25:59;30.50;;;4.55;;
69719;SDS011;56988;56.122;13.798;2023-01-29T01:26:59;41.65;;;5.60;;
69719;SDS011;56988;56.122;13.798;2023-01-29T01:27:59;24.75;;;4.90;;
69719;SDS011;56988;56.122;13.798;2023-01-29T01:29:00;32.88;;;4.45;;
69719;SDS011;56988;56.122;13.798;2023-01-29T01:30:00;27.60;;;4.75;;
69719;SDS011;56988;56.122;13.798;2023-01-29T01:31:06;36.33;;;5.78;;
69719;SDS011;56988;56.122;13.798;2023-01-29T01:32:07;19.90;;;4.15;;
69719;SDS011;56988;56.122;13.798;2023-01-29T01:33:07;27.48;;;5.50;;
69719;SDS011;56988;56.122;13.798;2023-01-29T01:34:07;27.88;;;4.72;;
69719;SDS011;56988;56.122;13.798;2023-01-29T01:35:08;29.83;;;5.28;;
69719;SDS011;56988;56.122;13.798;2023-01-29T01:36:09;21.73;;;4.57;;
69719;SDS011;56988;56.122;13.798;2023-01-29T01:37:09;25.75;;;4.63;;
69719;SDS011;56988;56.122;13.798;2023-01-29T01:38:10;27.23;;;5.28;;
69719;SDS011;56988;56.122;13.798;2023-01-29T01:39:10;24.85;;;4.75;;
69719;SDS011;56988;56.122;13.798;2023-01-29T01:40:12;28.95;;;5.03;;
69719;SDS011;56988;56.122;13.798;2023-01-29T01:41:17;27.80;;;5.03;;
69719;SDS011;56988;56.122;13.798;2023-01-29T01:42:18;26.90;;;4.53;;
69719;SDS011;56988;56.122;13.798;2023-01-29T01:43:18;20.60;;;5.22;;
69719;SDS011;56988;56.122;13.798;2023-01-29T01:45:37;19.17;;;3.90;;
69719;SDS011;56988;56.122;13.798;2023-01-29T01:46:38;29.38;;;5.45;;
69719;SDS011;56988;56.122;13.798;2023-01-29T01:47:42;37.53;;;4.60;;
69719;SDS011;56988;56.122;13.798;2023-01-29T01:48:45;27.60;;;5.40;;
69719;SDS011;56988;56.122;13.798;2023-01-29T01:49:46;36.42;;;5.28;;
69719;SDS011;56988;56.122;13.798;2023-01-29T01:50:51;30.35;;;4.90;;
69719;SDS011;56988;56.122;13.798;2023-01-29T01:51:52;30.77;;;4.43;;
69719;SDS011;56988;56.122;13.798;2023-01-29T01:52:54;21.50;;;4.87;;
69719;SDS011;56988;56.122;13.798;2023-01-29T01:53:57;36.92;;;4.95;;
69719;SDS011;56988;56.122;13.798;2023-01-29T01:55:00;25.02;;;4.03;;
69719;SDS011;56988;56.122;13.798;2023-01-29T01:56:02;29.20;;;4.22;;
69719;SDS011;56988;56.122;13.798;2023-01-29T01:57:06;20.27;;;5.05;;
69719;SDS011;56988;56.122;13.798;2023-01-29T01:58:49;29.30;;;4.63;;
69719;SDS011;56988;56.122;13.798;2023-01-29T01:59:45;30.80;;;4.72;;
69719;SDS011;56988;56.122;13.798;2023-01-29T02:00:47;22.38;;;4.30;;
69719;SDS011;56988;56.122;13.798;2023-01-29T02:01:49;34.08;;;4.70;;
69719;SDS011;56988;56.122;13.798;2023-01-29T02:02:50;31.73;;;4.85;;
69719;SDS011;56988;56.122;13.798;2023-01-29T02:04:30;22.20;;;3.92;;
69719;SDS011;56988;56.122;13.798;2023-01-29T02:05:48;25.23;;;3.85;;
69719;SDS011;56988;56.122;13.798;2023-01-29T02:07:08;28.40;;;4.13;;
69719;SDS011;56988;56.122;13.798;2023-01-29T02:08:29;25.73;;;4.10;;
69719;SDS011;56988;56.122;13.798;2023-01-29T02:09:51;26.30;;;4.50;;
69719;SDS011;56988;56.122;13.798;2023-01-29T02:10:52;24.60;;;4.75;;
69719;SDS011;56988;56.122;13.798;2023-01-29T02:11:52;23.40;;;3.67;;
69719;SDS011;56988;56.122;13.798;2023-01-29T02:12:52;22.23;;;4.05;;
69719;SDS011;56988;56.122;13.798;2023-01-29T02:13:53;29.67;;;4.90;;
69719;SDS011;56988;56.122;13.798;2023-01-29T02:14:53;25.88;;;3.97;;
69719;SDS011;56988;56.122;13.798;2023-01-29T02:15:53;29.05;;;3.88;;
69719;SDS011;56988;56.122;13.798;2023-01-29T02:16:54;14.00;;;3.50;;
69719;SDS011;56988;56.122;13.798;2023-01-29T02:17:54;31.83;;;4.45;;
69719;SDS011;56988;56.122;13.798;2023-01-29T02:18:54;25.48;;;3.72;;
69719;SDS011;56988;56.122;13.798;2023-01-29T02:22:11;26.08;;;4.13;;
69719;SDS011;56988;56.122;13.798;2023-01-29T02:23:22;26.98;;;4.35;;
69719;SDS011;56988;56.122;13.798;2023-01-29T02:29:10;17.55;;;3.95;;
69719;SDS011;56988;56.122;13.798;2023-01-29T02:30:32;26.30;;;4.47;;
69719;SDS011;56988;56.122;13.798;2023-01-29T02:31:43;18.85;;;3.20;;
69719;SDS011;56988;56.122;13.798;2023-01-29T02:32:50;23.35;;;4.53;;
69719;SDS011;56988;56.122;13.798;2023-01-29T02:36:30;23.15;;;4.13;;
69719;SDS011;56988;56.122;13.798;2023-01-29T02:38:15;18.63;;;3.38;;
69719;SDS011;56988;56.122;13.798;2023-01-29T02:40:18;27.13;;;3.63;;
69719;SDS011;56988;56.122;13.798;2023-01-29T02:41:30;25.00;;;3.22;;
69719;SDS011;56988;56.122;13.798;2023-01-29T02:42:33;18.65;;;3.50;;
69719;SDS011;56988;56.122;13.798;2023-01-29T02:43:53;26.45;;;3.75;;
69719;SDS011;56988;56.122;13.798;2023-01-29T02:44:55;23.45;;;3.88;;
69719;SDS011;56988;56.122;13.798;2023-01-29T02:47:01;17.48;;;3.20;;
69719;SDS011;56988;56.122;13.798;2023-01-29T02:48:03;30.23;;;4.13;;
69719;SDS011;56988;56.122;13.798;2023-01-29T02:49:09;25.38;;;3.92;;
69719;SDS011;56988;56.122;13.798;2023-01-29T02:50:14;24.95;;;3.05;;
69719;SDS011;56988;56.122;13.798;2023-01-29T02:51:33;21.17;;;3.67;;
69719;SDS011;56988;56.122;13.798;2023-01-29T02:52:37;25.40;;;3.28;;
69719;SDS011;56988;56.122;13.798;2023-01-29T02:53:47;20.45;;;3.00;;
69719;SDS011;56988;56.122;13.798;2023-01-29T02:54:51;29.40;;;3.83;;
69719;SDS011;56988;56.122;13.798;2023-01-29T02:56:57;20.42;;;3.15;;
69719;SDS011;56988;56.122;13.798;2023-01-29T02:58:41;14.00;;;3.10;;
69719;SDS011;56988;56.122;13.798;2023-01-29T02:59:22;23.17;;;4.28;;
69719;SDS011;56988;56.122;13.798;2023-01-29T03:00:29;22.85;;;3.75;;
69719;SDS011;56988;56.122;13.798;2023-01-29T03:01:32;24.60;;;3.25;;
69719;SDS011;56988;56.122;13.798;2023-01-29T03:02:35;20.58;;;3.58;;
69719;SDS011;56988;56.122;13.798;2023-01-29T03:03:41;20.33;;;4.38;;
69719;SDS011;56988;56.122;13.798;2023-01-29T03:04:45;23.48;;;3.45;;
69719;SDS011;56988;56.122;13.798;2023-01-29T03:06:03;22.73;;;3.80;;
69719;SDS011;56988;56.122;13.798;2023-01-29T03:07:08;22.30;;;3.05;;
69719;SDS011;56988;56.122;13.798;2023-01-29T03:08:29;25.25;;;3.35;;
69719;SDS011;56988;56.122;13.798;2023-01-29T03:09:37;19.10;;;3.45;;
69719;SDS011;56988;56.122;13.798;2023-01-29T03:10:39;22.42;;;3.33;;
69719;SDS011;56988;56.122;13.798;2023-01-29T03:11:45;27.75;;;5.10;;
69719;SDS011;56988;56.122;13.798;2023-01-29T03:12:52;21.15;;;3.28;;
69719;SDS011;56988;56.122;13.798;2023-01-29T03:13:58;18.60;;;2.88;;
69719;SDS011;56988;56.122;13.798;2023-01-29T03:15:01;20.00;;;3.70;;
69719;SDS011;56988;56.122;13.798;2023-01-29T03:17:11;22.73;;;3.23;;
69719;SDS011;56988;56.122;13.798;2023-01-29T03:19:14;20.13;;;3.73;;
69719;SDS011;56988;56.122;13.798;2023-01-29T03:20:17;25.90;;;3.58;;
69719;SDS011;56988;56.122;13.798;2023-01-29T03:21:23;22.17;;;3.28;;
69719;SDS011;56988;56.122;13.798;2023-01-29T03:22:43;27.23;;;3.50;;
69719;SDS011;56988;56.122;13.798;2023-01-29T03:23:44;28.73;;;4.22;;
69719;SDS011;56988;56.122;13.798;2023-01-29T03:25:03;24.10;;;3.45;;
69719;SDS011;56988;56.122;13.798;2023-01-29T03:26:22;28.73;;;3.50;;
69719;SDS011;56988;56.122;13.798;2023-01-29T03:27:53;23.63;;;2.95;;
69719;SDS011;56988;56.122;13.798;2023-01-29T03:29:13;15.07;;;3.05;;
69719;SDS011;56988;56.122;13.798;2023-01-29T03:30:32;18.75;;;3.35;;
69719;SDS011;56988;56.122;13.798;2023-01-29T03:31:53;27.88;;;3.50;;
69719;SDS011;56988;56.122;13.798;2023-01-29T03:33:07;18.15;;;3.88;;
69719;SDS011;56988;56.122;13.798;2023-01-29T03:35:08;17.10;;;3.57;;
69719;SDS011;56988;56.122;13.798;2023-01-29T03:36:15;19.85;;;3.65;;
69719;SDS011;56988;56.122;13.798;2023-01-29T03:38:18;19.63;;;3.70;;
69719;SDS011;56988;56.122;13.798;2023-01-29T03:39:18;25.92;;;4.25;;
69719;SDS011;56988;56.122;13.798;2023-01-29T03:40:19;23.70;;;3.03;;
69719;SDS011;56988;56.122;13.798;2023-01-29T03:42:22;18.98;;;3.25;;
69719;SDS011;56988;56.122;13.798;2023-01-29T03:45:47;18.63;;;3.22;;
69719;SDS011;56988;56.122;13.798;2023-01-29T03:46:56;22.48;;;3.85;;
69719;SDS011;56988;56.122;13.798;2023-01-29T03:48:06;22.60;;;3.80;;
69719;SDS011;56988;56.122;13.798;2023-01-29T03:49:29;20.80;;;3.42;;
69719;SDS011;56988;56.122;13.798;2023-01-29T03:52:09;18.05;;;3.78;;
69719;SDS011;56988;56.122;13.798;2023-01-29T03:56:38;19.05;;;2.97;;
69719;SDS011;56988;56.122;13.798;2023-01-29T03:59:02;21.55;;;3.63;;
69719;SDS011;56988;56.122;13.798;2023-01-29T04:00:18;33.38;;;3.85;;
69719;SDS011;56988;56.122;13.798;2023-01-29T04:01:21;19.98;;;3.40;;
69719;SDS011;56988;56.122;13.798;2023-01-29T04:02:26;25.15;;;3.85;;
69719;SDS011;56988;56.122;13.798;2023-01-29T04:03:31;26.25;;;3.83;;
69719;SDS011;56988;56.122;13.798;2023-01-29T04:04:33;21.52;;;3.03;;
69719;SDS011;56988;56.122;13.798;2023-01-29T04:06:34;27.17;;;3.63;;
69719;SDS011;56988;56.122;13.798;2023-01-29T04:07:36;22.23;;;3.20;;
69719;SDS011;56988;56.122;13.798;2023-01-29T04:09:26;25.45;;;4.22;;
69719;SDS011;56988;56.122;13.798;2023-01-29T04:10:00;26.67;;;3.80;;
69719;SDS011;56988;56.122;13.798;2023-01-29T04:11:11;17.98;;;3.22;;
69719;SDS011;56988;56.122;13.798;2023-01-29T04:12:14;18.50;;;3.45;;
69719;SDS011;56988;56.122;13.798;2023-01-29T04:13:15;20.60;;;3.95;;
69719;SDS011;56988;56.122;13.798;2023-01-29T04:14:16;14.80;;;2.75;;
69719;SDS011;56988;56.122;13.798;2023-01-29T04:15:17;24.60;;;3.15;;
69719;SDS011;56988;56.122;13.798;2023-01-29T04:16:19;22.50;;;3.40;;
69719;SDS011;56988;56.122;13.798;2023-01-29T04:17:27;26.33;;;3.90;;
69719;SDS011;56988;56.122;13.798;2023-01-29T04:18:31;21.27;;;3.47;;
69719;SDS011;56988;56.122;13.798;2023-01-29T04:19:32;32.67;;;3.35;;
69719;SDS011;56988;56.122;13.798;2023-01-29T04:20:33;20.80;;;2.95;;
69719;SDS011;56988;56.122;13.798;2023-01-29T04:21:34;29.85;;;3.85;;
69719;SDS011;56988;56.122;13.798;2023-01-29T04:22:37;26.13;;;3.85;;
69719;SDS011;56988;56.122;13.798;2023-01-29T04:23:37;19.38;;;3.17;;
69719;SDS011;56988;56.122;13.798;2023-01-29T04:24:38;16.65;;;2.83;;
69719;SDS011;56988;56.122;13.798;2023-01-29T04:25:43;24.25;;;3.72;;
69719;SDS011;56988;56.122;13.798;2023-01-29T04:26:59;25.48;;;2.83;;
69719;SDS011;56988;56.122;13.798;2023-01-29T04:28:18;19.73;;;2.78;;
69719;SDS011;56988;56.122;13.798;2023-01-29T04:29:34;26.15;;;4.22;;
69719;SDS011;56988;56.122;13.798;2023-01-29T04:34:27;28.60;;;3.40;;
69719;SDS011;56988;56.122;13.798;2023-01-29T04:38:04;19.92;;;2.78;;
69719;SDS011;56988;56.122;13.798;2023-01-29T04:40:19;19.00;;;2.88;;
69719;SDS011;56988;56.122;13.798;2023-01-29T04:42:30;23.17;;;3.35;;
69719;SDS011;56988;56.122;13.798;2023-01-29T04:43:54;21.05;;;3.20;;
69719;SDS011;56988;56.122;13.798;2023-01-29T04:45:02;18.48;;;2.70;;
69719;SDS011;56988;56.122;13.798;2023-01-29T04:47:45;21.55;;;4.03;;
69719;SDS011;56988;56.122;13.798;2023-01-29T04:50:56;15.67;;;2.77;;
69719;SDS011;56988;56.122;13.798;2023-01-29T04:52:43;18.02;;;3.38;;
69719;SDS011;56988;56.122;13.798;2023-01-29T04:57:52;23.02;;;3.25;;
69719;SDS011;56988;56.122;13.798;2023-01-29T05:00:56;25.92;;;3.65;;
69719;SDS011;56988;56.122;13.798;2023-01-29T05:01:58;16.02;;;3.50;;
69719;SDS011;56988;56.122;13.798;2023-01-29T05:02:59;20.95;;;3.42;;
69719;SDS011;56988;56.122;13.798;2023-01-29T05:04:01;19.10;;;2.83;;
69719;SDS011;56988;56.122;13.798;2023-01-29T05:05:03;22.30;;;2.88;;
69719;SDS011;56988;56.122;13.798;2023-01-29T05:06:05;21.90;;;3.33;;
69719;SDS011;56988;56.122;13.798;2023-01-29T05:07:08;23.48;;;4.20;;
69719;SDS011;56988;56.122;13.798;2023-01-29T05:08:09;27.30;;;3.40;;
69719;SDS011;56988;56.122;13.798;2023-01-29T05:09:11;22.70;;;3.15;;
69719;SDS011;56988;56.122;13.798;2023-01-29T05:10:13;17.45;;;3.05;;
69719;SDS011;56988;56.122;13.798;2023-01-29T05:12:14;21.50;;;3.17;;
69719;SDS011;56988;56.122;13.798;2023-01-29T05:13:16;23.83;;;3.97;;
69719;SDS011;56988;56.122;13.798;2023-01-29T05:14:17;20.65;;;3.60;;
69719;SDS011;56988;56.122;13.798;2023-01-29T05:15:19;18.23;;;3.80;;
69719;SDS011;56988;56.122;13.798;2023-01-29T05:16:23;22.75;;;3.53;;
69719;SDS011;56988;56.122;13.798;2023-01-29T05:17:24;19.88;;;3.10;;
69719;SDS011;56988;56.122;13.798;2023-01-29T05:18:25;12.00;;;3.13;;
69719;SDS011;56988;56.122;13.798;2023-01-29T05:19:25;26.02;;;3.38;;
69719;SDS011;56988;56.122;13.798;2023-01-29T05:20:26;30.80;;;4.15;;
69719;SDS011;56988;56.122;13.798;2023-01-29T05:21:26;24.90;;;3.85;;
69719;SDS011;56988;56.122;13.798;2023-01-29T05:22:26;27.38;;;4.30;;
69719;SDS011;56988;56.122;13.798;2023-01-29T05:23:27;28.63;;;5.95;;
69719;SDS011;56988;56.122;13.798;2023-01-29T05:24:27;23.15;;;3.90;;
69719;SDS011;56988;56.122;13.798;2023-01-29T05:25:29;32.65;;;4.97;;
69719;SDS011;56988;56.122;13.798;2023-01-29T05:26:30;15.10;;;3.55;;
69719;SDS011;56988;56.122;13.798;2023-01-29T05:27:49;20.80;;;3.42;;
69719;SDS011;56988;56.122;13.798;2023-01-29T05:29:15;25.58;;;3.10;;
69719;SDS011;56988;56.122;13.798;2023-01-29T05:30:17;21.73;;;2.90;;
69719;SDS011;56988;56.122;13.798;2023-01-29T05:31:17;19.77;;;2.75;;
69719;SDS011;56988;56.122;13.798;2023-01-29T05:32:17;17.50;;;3.20;;
69719;SDS011;56988;56.122;13.798;2023-01-29T05:33:19;25.43;;;3.17;;
69719;SDS011;56988;56.122;13.798;2023-01-29T05:34:19;22.35;;;2.95;;
69719;SDS011;56988;56.122;13.798;2023-01-29T05:35:20;16.30;;;3.05;;
69719;SDS011;56988;56.122;13.798;2023-01-29T05:36:20;22.43;;;3.57;;
69719;SDS011;56988;56.122;13.798;2023-01-29T05:37:20;20.93;;;3.30;;
69719;SDS011;56988;56.122;13.798;2023-01-29T05:38:21;25.00;;;4.10;;
69719;SDS011;56988;56.122;13.798;2023-01-29T05:39:21;16.70;;;2.97;;
69719;SDS011;56988;56.122;13.798;2023-01-29T05:40:22;20.92;;;4.10;;
69719;SDS011;56988;56.122;13.798;2023-01-29T05:41:23;25.48;;;2.92;;
69719;SDS011;56988;56.122;13.798;2023-01-29T05:42:23;16.55;;;2.58;;
69719;SDS011;56988;56.122;13.798;2023-01-29T05:43:23;17.83;;;3.60;;
69719;SDS011;56988;56.122;13.798;2023-01-29T05:44:24;18.60;;;3.40;;
69719;SDS011;56988;56.122;13.798;2023-01-29T05:45:24;22.70;;;3.33;;
69719;SDS011;56988;56.122;13.798;2023-01-29T05:46:25;20.95;;;3.05;;
69719;SDS011;56988;56.122;13.798;2023-01-29T05:47:25;20.52;;;3.80;;
69719;SDS011;56988;56.122;13.798;2023-01-29T05:48:26;24.75;;;3.10;;
69719;SDS011;56988;56.122;13.798;2023-01-29T05:49:27;18.63;;;3.03;;
69719;SDS011;56988;56.122;13.798;2023-01-29T05:50:28;26.67;;;3.22;;
69719;SDS011;56988;56.122;13.798;2023-01-29T05:51:28;28.17;;;3.63;;
69719;SDS011;56988;56.122;13.798;2023-01-29T05:52:28;19.85;;;2.85;;
69719;SDS011;56988;56.122;13.798;2023-01-29T05:53:29;24.05;;;2.88;;
69719;SDS011;56988;56.122;13.798;2023-01-29T05:54:29;21.77;;;3.13;;
69719;SDS011;56988;56.122;13.798;2023-01-29T05:55:29;23.80;;;2.90;;
69719;SDS011;56988;56.122;13.798;2023-01-29T05:56:30;21.48;;;3.20;;
69719;SDS011;56988;56.122;13.798;2023-01-29T05:57:30;19.20;;;2.95;;
69719;SDS011;56988;56.122;13.798;2023-01-29T05:58:31;18.63;;;3.42;;
69719;SDS011;56988;56.122;13.798;2023-01-29T05:59:31;18.52;;;2.72;;
69719;SDS011;56988;56.122;13.798;2023-01-29T06:00:32;12.88;;;2.85;;
69719;SDS011;56988;56.122;13.798;2023-01-29T06:01:32;24.60;;;3.37;;
69719;SDS011;56988;56.122;13.798;2023-01-29T06:02:32;11.02;;;2.58;;
69719;SDS011;56988;56.122;13.798;2023-01-29T06:03:32;14.02;;;2.42;;
69719;SDS011;56988;56.122;13.798;2023-01-29T06:04:33;22.87;;;2.83;;
69719;SDS011;56988;56.122;13.798;2023-01-29T06:05:36;13.07;;;2.93;;
69719;SDS011;56988;56.122;13.798;2023-01-29T06:06:36;21.17;;;3.20;;
69719;SDS011;56988;56.122;13.798;2023-01-29T06:07:36;20.40;;;2.75;;
69719;SDS011;56988;56.122;13.798;2023-01-29T06:08:39;23.40;;;3.25;;
69719;SDS011;56988;56.122;13.798;2023-01-29T06:09:39;17.80;;;3.33;;
69719;SDS011;56988;56.122;13.798;2023-01-29T06:10:39;20.13;;;3.03;;
69719;SDS011;56988;56.122;13.798;2023-01-29T06:11:40;18.10;;;2.60;;
69719;SDS011;56988;56.122;13.798;2023-01-29T06:12:41;20.70;;;3.38;;
69719;SDS011;56988;56.122;13.798;2023-01-29T06:13:41;11.98;;;4.22;;
69719;SDS011;56988;56.122;13.798;2023-01-29T06:14:42;22.17;;;2.95;;
69719;SDS011;56988;56.122;13.798;2023-01-29T06:15:42;15.10;;;2.60;;
69719;SDS011;56988;56.122;13.798;2023-01-29T06:16:42;21.23;;;2.83;;
69719;SDS011;56988;56.122;13.798;2023-01-29T06:17:42;21.20;;;3.38;;
69719;SDS011;56988;56.122;13.798;2023-01-29T06:18:43;20.73;;;3.40;;
69719;SDS011;56988;56.122;13.798;2023-01-29T06:19:43;15.65;;;2.72;;
69719;SDS011;56988;56.122;13.798;2023-01-29T06:20:43;18.33;;;2.65;;
69719;SDS011;56988;56.122;13.798;2023-01-29T06:21:43;13.90;;;2.90;;
69719;SDS011;56988;56.122;13.798;2023-01-29T06:22:44;18.35;;;2.97;;
69719;SDS011;56988;56.122;13.798;2023-01-29T06:23:44;19.10;;;2.63;;
69719;SDS011;56988;56.122;13.798;2023-01-29T06:24:44;10.48;;;2.30;;
69719;SDS011;56988;56.122;13.798;2023-01-29T06:25:45;12.93;;;2.50;;
69719;SDS011;56988;56.122;13.798;2023-01-29T06:26:45;17.98;;;2.83;;
69719;SDS011;56988;56.122;13.798;2023-01-29T06:27:45;16.23;;;2.63;;
69719;SDS011;56988;56.122;13.798;2023-01-29T06:28:49;21.52;;;3.03;;
69719;SDS011;56988;56.122;13.798;2023-01-29T06:29:49;18.75;;;2.80;;
69719;SDS011;56988;56.122;13.798;2023-01-29T06:30:49;16.90;;;3.40;;
69719;SDS011;56988;56.122;13.798;2023-01-29T06:31:50;18.98;;;2.90;;
69719;SDS011;56988;56.122;13.798;2023-01-29T06:32:51;20.15;;;3.17;;
69719;SDS011;56988;56.122;13.798;2023-01-29T06:33:54;19.95;;;2.63;;
69719;SDS011;56988;56.122;13.798;2023-01-29T06:34:54;21.63;;;3.17;;
69719;SDS011;56988;56.122;13.798;2023-01-29T06:36:03;17.58;;;2.55;;
69719;SDS011;56988;56.122;13.798;2023-01-29T06:37:04;24.63;;;3.25;;
69719;SDS011;56988;56.122;13.798;2023-01-29T06:38:04;20.20;;;2.80;;
69719;SDS011;56988;56.122;13.798;2023-01-29T06:39:05;13.90;;;2.55;;
69719;SDS011;56988;56.122;13.798;2023-01-29T06:40:05;20.92;;;3.13;;
69719;SDS011;56988;56.122;13.798;2023-01-29T06:41:12;14.55;;;3.10;;
69719;SDS011;56988;56.122;13.798;2023-01-29T06:42:13;27.08;;;3.28;;
69719;SDS011;56988;56.122;13.798;2023-01-29T06:43:13;20.00;;;3.55;;
69719;SDS011;56988;56.122;13.798;2023-01-29T06:44:13;19.20;;;2.97;;
69719;SDS011;56988;56.122;13.798;2023-01-29T06:45:14;22.42;;;3.05;;
69719;SDS011;56988;56.122;13.798;2023-01-29T06:46:14;19.23;;;2.80;;
69719;SDS011;56988;56.122;13.798;2023-01-29T06:47:14;14.93;;;3.28;;
69719;SDS011;56988;56.122;13.798;2023-01-29T06:48:15;15.60;;;2.85;;
69719;SDS011;56988;56.122;13.798;2023-01-29T06:49:15;15.90;;;2.63;;
69719;SDS011;56988;56.122;13.798;2023-01-29T06:50:15;24.17;;;3.28;;
69719;SDS011;56988;56.122;13.798;2023-01-29T06:51:16;15.20;;;2.22;;
69719;SDS011;56988;56.122;13.798;2023-01-29T06:52:16;21.27;;;3.05;;
69719;SDS011;56988;56.122;13.798;2023-01-29T06:53:16;19.73;;;2.70;;
69719;SDS011;56988;56.122;13.798;2023-01-29T06:54:19;16.10;;;3.38;;
69719;SDS011;56988;56.122;13.798;2023-01-29T06:55:19;22.33;;;3.30;;
69719;SDS011;56988;56.122;13.798;2023-01-29T06:56:20;23.83;;;3.63;;
69719;SDS011;56988;56.122;13.798;2023-01-29T06:57:20;18.20;;;3.30;;
69719;SDS011;56988;56.122;13.798;2023-01-29T06:58:21;19.60;;;3.15;;
69719;SDS011;56988;56.122;13.798;2023-01-29T06:59:21;22.08;;;3.05;;
69719;SDS011;56988;56.122;13.798;2023-01-29T07:00:21;19.27;;;3.08;;
69719;SDS011;56988;56.122;13.798;2023-01-29T07:01:22;22.60;;;2.90;;
69719;SDS011;56988;56.122;13.798;2023-01-29T07:02:22;21.52;;;3.38;;